sensor_id;sensor_type;location;lat;lon;timestamp;P1;durP1;ratioP1;P2;durP2;ratioP2
36213;SDS011;37652;50.400;30.628;2022-08-14T00:03:41;11.97;;;9.67;;
36213;SDS011;37652;50.400;30.628;2022-08-14T00:07:43;13.18;;;9.57;;
36213;SDS011;37652;50.400;30.628;2022-08-14T00:09:44;11.77;;;9.70;;
36213;SDS011;37652;50.400;30.628;2022-08-14T00:13:46;13.07;;;10.20;;
36213;SDS011;37652;50.400;30.628;2022-08-14T00:15:47;11.93;;;9.60;;
36213;SDS011;37652;50.400;30.628;2022-08-14T00:17:51;17.27;;;9.73;;
36213;SDS011;37652;50.400;30.628;2022-08-14T00:19:52;10.70;;;9.57;;
36213;SDS011;37652;50.400;30.628;2022-08-14T00:23:53;10.47;;;9.40;;
36213;SDS011;37652;50.400;30.628;2022-08-14T00:25:55;14.60;;;9.40;;
36213;SDS011;37652;50.400;30.628;2022-08-14T00:29:57;9.90;;;8.97;;
36213;SDS011;37652;50.400;30.628;2022-08-14T00:33:58;14.53;;;9.57;;
36213;SDS011;37652;50.400;30.628;2022-08-14T00:37:59;12.03;;;9.17;;
36213;SDS011;37652;50.400;30.628;2022-08-14T00:40:00;16.63;;;9.43;;
36213;SDS011;37652;50.400;30.628;2022-08-14T00:42:01;14.00;;;9.30;;
36213;SDS011;37652;50.400;30.628;2022-08-14T00:44:03;13.52;;;9.57;;
36213;SDS011;37652;50.400;30.628;2022-08-14T00:48:04;13.43;;;8.90;;
36213;SDS011;37652;50.400;30.628;2022-08-14T00:52:07;10.10;;;9.10;;
36213;SDS011;37652;50.400;30.628;2022-08-14T00:56:09;13.05;;;10.38;;
36213;SDS011;37652;50.400;30.628;2022-08-14T01:00:29;13.15;;;9.82;;
36213;SDS011;37652;50.400;30.628;2022-08-14T01:04:30;12.87;;;9.20;;
36213;SDS011;37652;50.400;30.628;2022-08-14T01:06:33;12.38;;;9.18;;
36213;SDS011;37652;50.400;30.628;2022-08-14T01:10:36;10.05;;;8.77;;
36213;SDS011;37652;50.400;30.628;2022-08-14T01:12:50;13.50;;;9.73;;
36213;SDS011;37652;50.400;30.628;2022-08-14T01:16:54;11.68;;;9.15;;
36213;SDS011;37652;50.400;30.628;2022-08-14T01:21:14;12.23;;;9.30;;
36213;SDS011;37652;50.400;30.628;2022-08-14T01:23:16;13.50;;;9.27;;
36213;SDS011;37652;50.400;30.628;2022-08-14T01:27:18;10.73;;;8.73;;
36213;SDS011;37652;50.400;30.628;2022-08-14T01:29:21;10.23;;;9.20;;
36213;SDS011;37652;50.400;30.628;2022-08-14T01:33:24;9.45;;;8.48;;
36213;SDS011;37652;50.400;30.628;2022-08-14T01:35:28;12.25;;;8.77;;
36213;SDS011;37652;50.400;30.628;2022-08-14T01:39:29;13.50;;;8.13;;
36213;SDS011;37652;50.400;30.628;2022-08-14T01:41:30;12.43;;;8.90;;
36213;SDS011;37652;50.400;30.628;2022-08-14T01:45:38;12.68;;;9.35;;
36213;SDS011;37652;50.400;30.628;2022-08-14T01:47:39;15.45;;;8.25;;
36213;SDS011;37652;50.400;30.628;2022-08-14T01:51:41;9.77;;;8.87;;
36213;SDS011;37652;50.400;30.628;2022-08-14T01:53:44;16.58;;;8.80;;
36213;SDS011;37652;50.400;30.628;2022-08-14T01:55:46;13.02;;;8.38;;
36213;SDS011;37652;50.400;30.628;2022-08-14T01:57:50;9.90;;;8.90;;
36213;SDS011;37652;50.400;30.628;2022-08-14T02:01:55;14.02;;;8.95;;
36213;SDS011;37652;50.400;30.628;2022-08-14T02:03:57;10.18;;;8.75;;
36213;SDS011;37652;50.400;30.628;2022-08-14T02:08:00;12.68;;;8.70;;
36213;SDS011;37652;50.400;30.628;2022-08-14T02:10:01;10.70;;;8.10;;
36213;SDS011;37652;50.400;30.628;2022-08-14T02:12:03;13.07;;;7.97;;
36213;SDS011;37652;50.400;30.628;2022-08-14T02:14:06;9.43;;;8.30;;
36213;SDS011;37652;50.400;30.628;2022-08-14T02:16:09;12.98;;;8.85;;
36213;SDS011;37652;50.400;30.628;2022-08-14T02:20:10;9.80;;;7.83;;
36213;SDS011;37652;50.400;30.628;2022-08-14T02:22:12;9.27;;;8.15;;
36213;SDS011;37652;50.400;30.628;2022-08-14T02:24:15;10.88;;;8.00;;
36213;SDS011;37652;50.400;30.628;2022-08-14T02:26:30;8.95;;;7.65;;
36213;SDS011;37652;50.400;30.628;2022-08-14T02:28:32;13.00;;;8.40;;
36213;SDS011;37652;50.400;30.628;2022-08-14T02:32:33;8.20;;;7.27;;
36213;SDS011;37652;50.400;30.628;2022-08-14T02:34:35;10.90;;;8.00;;
36213;SDS011;37652;50.400;30.628;2022-08-14T02:36:37;12.52;;;8.13;;
36213;SDS011;37652;50.400;30.628;2022-08-14T02:38:39;12.50;;;8.95;;
36213;SDS011;37652;50.400;30.628;2022-08-14T02:40:40;10.40;;;8.90;;
36213;SDS011;37652;50.400;30.628;2022-08-14T02:44:42;10.23;;;8.07;;
36213;SDS011;37652;50.400;30.628;2022-08-14T02:46:43;10.00;;;8.90;;
36213;SDS011;37652;50.400;30.628;2022-08-14T02:50:45;13.43;;;7.90;;
36213;SDS011;37652;50.400;30.628;2022-08-14T02:52:46;11.23;;;9.13;;
36213;SDS011;37652;50.400;30.628;2022-08-14T02:56:48;12.83;;;8.03;;
36213;SDS011;37652;50.400;30.628;2022-08-14T02:58:50;14.65;;;8.05;;
36213;SDS011;37652;50.400;30.628;2022-08-14T03:00:51;9.43;;;7.95;;
36213;SDS011;37652;50.400;30.628;2022-08-14T03:02:53;11.32;;;8.85;;
36213;SDS011;37652;50.400;30.628;2022-08-14T03:06:54;10.00;;;7.93;;
36213;SDS011;37652;50.400;30.628;2022-08-14T03:08:56;10.80;;;8.02;;
36213;SDS011;37652;50.400;30.628;2022-08-14T03:10:59;12.00;;;8.15;;
36213;SDS011;37652;50.400;30.628;2022-08-14T03:13:05;12.38;;;8.82;;
36213;SDS011;37652;50.400;30.628;2022-08-14T03:19:09;11.52;;;8.45;;
36213;SDS011;37652;50.400;30.628;2022-08-14T03:21:11;11.57;;;9.32;;
36213;SDS011;37652;50.400;30.628;2022-08-14T03:23:14;8.68;;;7.88;;
36213;SDS011;37652;50.400;30.628;2022-08-14T03:25:15;8.60;;;7.70;;
36213;SDS011;37652;50.400;30.628;2022-08-14T03:29:17;11.23;;;8.20;;
36213;SDS011;37652;50.400;30.628;2022-08-14T03:31:21;10.25;;;7.75;;
36213;SDS011;37652;50.400;30.628;2022-08-14T03:33:22;12.98;;;8.07;;
36213;SDS011;37652;50.400;30.628;2022-08-14T03:37:24;9.43;;;8.37;;
36213;SDS011;37652;50.400;30.628;2022-08-14T03:39:28;11.18;;;8.48;;
36213;SDS011;37652;50.400;30.628;2022-08-14T03:43:29;11.77;;;8.07;;
36213;SDS011;37652;50.400;30.628;2022-08-14T03:45:30;8.55;;;7.55;;
36213;SDS011;37652;50.400;30.628;2022-08-14T03:47:32;10.52;;;7.90;;
36213;SDS011;37652;50.400;30.628;2022-08-14T03:49:35;11.43;;;8.27;;
36213;SDS011;37652;50.400;30.628;2022-08-14T03:53:42;10.07;;;7.93;;
36213;SDS011;37652;50.400;30.628;2022-08-14T03:55:44;9.18;;;8.18;;
36213;SDS011;37652;50.400;30.628;2022-08-14T03:57:46;9.02;;;7.45;;
36213;SDS011;37652;50.400;30.628;2022-08-14T04:01:47;9.02;;;6.85;;
36213;SDS011;37652;50.400;30.628;2022-08-14T04:03:52;8.73;;;7.43;;
36213;SDS011;37652;50.400;30.628;2022-08-14T04:05:54;8.73;;;7.82;;
36213;SDS011;37652;50.400;30.628;2022-08-14T04:07:55;10.15;;;8.00;;
36213;SDS011;37652;50.400;30.628;2022-08-14T04:09:57;8.10;;;7.35;;
36213;SDS011;37652;50.400;30.628;2022-08-14T04:13:58;8.77;;;7.85;;
36213;SDS011;37652;50.400;30.628;2022-08-14T04:16:04;9.40;;;8.00;;
36213;SDS011;37652;50.400;30.628;2022-08-14T04:18:06;8.63;;;7.57;;
36213;SDS011;37652;50.400;30.628;2022-08-14T04:20:08;8.32;;;7.53;;
36213;SDS011;37652;50.400;30.628;2022-08-14T04:22:09;9.00;;;7.65;;
36213;SDS011;37652;50.400;30.628;2022-08-14T04:26:13;11.40;;;7.57;;
36213;SDS011;37652;50.400;30.628;2022-08-14T04:28:15;11.02;;;7.53;;
36213;SDS011;37652;50.400;30.628;2022-08-14T04:32:17;18.13;;;8.10;;
36213;SDS011;37652;50.400;30.628;2022-08-14T04:36:18;9.00;;;7.47;;
36213;SDS011;37652;50.400;30.628;2022-08-14T04:38:19;9.20;;;8.20;;
36213;SDS011;37652;50.400;30.628;2022-08-14T04:40:39;11.20;;;8.32;;
36213;SDS011;37652;50.400;30.628;2022-08-14T04:42:59;10.20;;;7.80;;
36213;SDS011;37652;50.400;30.628;2022-08-14T04:45:21;8.63;;;7.78;;
36213;SDS011;37652;50.400;30.628;2022-08-14T04:47:23;8.40;;;7.47;;
36213;SDS011;37652;50.400;30.628;2022-08-14T04:49:43;13.30;;;7.60;;
36213;SDS011;37652;50.400;30.628;2022-08-14T04:51:44;9.40;;;8.07;;
36213;SDS011;37652;50.400;30.628;2022-08-14T04:55:47;11.88;;;7.63;;
36213;SDS011;37652;50.400;30.628;2022-08-14T04:57:48;9.63;;;7.60;;
36213;SDS011;37652;50.400;30.628;2022-08-14T05:01:51;11.35;;;8.00;;
36213;SDS011;37652;50.400;30.628;2022-08-14T05:05:57;11.75;;;7.97;;
36213;SDS011;37652;50.400;30.628;2022-08-14T05:08:03;13.23;;;8.10;;
36213;SDS011;37652;50.400;30.628;2022-08-14T05:10:11;12.65;;;8.88;;
36213;SDS011;37652;50.400;30.628;2022-08-14T05:14:12;9.43;;;8.52;;
36213;SDS011;37652;50.400;30.628;2022-08-14T05:18:15;8.03;;;7.33;;
36213;SDS011;37652;50.400;30.628;2022-08-14T05:20:17;10.07;;;8.23;;
36213;SDS011;37652;50.400;30.628;2022-08-14T05:24:18;8.65;;;7.85;;
36213;SDS011;37652;50.400;30.628;2022-08-14T05:28:21;10.82;;;7.93;;
36213;SDS011;37652;50.400;30.628;2022-08-14T05:30:24;9.30;;;8.38;;
36213;SDS011;37652;50.400;30.628;2022-08-14T05:32:25;10.70;;;8.10;;
36213;SDS011;37652;50.400;30.628;2022-08-14T05:36:29;8.27;;;7.20;;
36213;SDS011;37652;50.400;30.628;2022-08-14T05:38:35;11.77;;;8.52;;
36213;SDS011;37652;50.400;30.628;2022-08-14T05:40:41;11.77;;;7.07;;
36213;SDS011;37652;50.400;30.628;2022-08-14T05:42:42;9.70;;;8.45;;
36213;SDS011;37652;50.400;30.628;2022-08-14T05:46:44;8.73;;;7.90;;
36213;SDS011;37652;50.400;30.628;2022-08-14T05:50:52;8.85;;;8.05;;
36213;SDS011;37652;50.400;30.628;2022-08-14T05:52:54;11.65;;;8.07;;
36213;SDS011;37652;50.400;30.628;2022-08-14T05:56:57;9.43;;;8.32;;
36213;SDS011;37652;50.400;30.628;2022-08-14T06:00:58;10.43;;;8.35;;
36213;SDS011;37652;50.400;30.628;2022-08-14T06:02:59;10.75;;;9.13;;
36213;SDS011;37652;50.400;30.628;2022-08-14T06:05:01;9.32;;;8.43;;
36213;SDS011;37652;50.400;30.628;2022-08-14T06:07:02;9.13;;;8.15;;
36213;SDS011;37652;50.400;30.628;2022-08-14T06:09:03;13.18;;;8.48;;
36213;SDS011;37652;50.400;30.628;2022-08-14T06:11:05;10.18;;;8.32;;
36213;SDS011;37652;50.400;30.628;2022-08-14T06:13:07;9.63;;;8.70;;
36213;SDS011;37652;50.400;30.628;2022-08-14T06:15:08;7.90;;;7.18;;
36213;SDS011;37652;50.400;30.628;2022-08-14T06:19:10;13.10;;;8.63;;
36213;SDS011;37652;50.400;30.628;2022-08-14T06:23:11;8.95;;;8.15;;
36213;SDS011;37652;50.400;30.628;2022-08-14T06:25:12;11.52;;;8.50;;
36213;SDS011;37652;50.400;30.628;2022-08-14T06:27:14;11.02;;;8.38;;
36213;SDS011;37652;50.400;30.628;2022-08-14T06:29:15;10.00;;;8.70;;
36213;SDS011;37652;50.400;30.628;2022-08-14T06:33:17;9.23;;;8.15;;
36213;SDS011;37652;50.400;30.628;2022-08-14T06:35:19;7.88;;;7.20;;
36213;SDS011;37652;50.400;30.628;2022-08-14T06:37:21;9.80;;;8.90;;
36213;SDS011;37652;50.400;30.628;2022-08-14T06:39:22;13.95;;;8.00;;
36213;SDS011;37652;50.400;30.628;2022-08-14T06:41:24;9.90;;;8.68;;
36213;SDS011;37652;50.400;30.628;2022-08-14T06:43:25;10.32;;;8.48;;
36213;SDS011;37652;50.400;30.628;2022-08-14T06:45:26;8.85;;;8.05;;
36213;SDS011;37652;50.400;30.628;2022-08-14T06:47:27;9.10;;;8.15;;
36213;SDS011;37652;50.400;30.628;2022-08-14T06:51:28;10.98;;;8.02;;
36213;SDS011;37652;50.400;30.628;2022-08-14T06:53:29;9.32;;;8.43;;
36213;SDS011;37652;50.400;30.628;2022-08-14T06:55:29;9.30;;;7.32;;
36213;SDS011;37652;50.400;30.628;2022-08-14T06:57:37;8.95;;;8.13;;
36213;SDS011;37652;50.400;30.628;2022-08-14T06:59:45;9.50;;;7.88;;
36213;SDS011;37652;50.400;30.628;2022-08-14T07:01:45;9.95;;;8.73;;
36213;SDS011;37652;50.400;30.628;2022-08-14T07:04:05;8.82;;;7.32;;
36213;SDS011;37652;50.400;30.628;2022-08-14T07:06:24;11.20;;;8.25;;
36213;SDS011;37652;50.400;30.628;2022-08-14T07:08:27;8.93;;;7.95;;
36213;SDS011;37652;50.400;30.628;2022-08-14T07:10:28;10.07;;;8.48;;
36213;SDS011;37652;50.400;30.628;2022-08-14T07:12:29;9.27;;;8.05;;
36213;SDS011;37652;50.400;30.628;2022-08-14T07:14:30;9.73;;;8.73;;
36213;SDS011;37652;50.400;30.628;2022-08-14T07:16:31;13.88;;;7.85;;
36213;SDS011;37652;50.400;30.628;2022-08-14T07:18:33;10.00;;;7.60;;
36213;SDS011;37652;50.400;30.628;2022-08-14T07:20:35;9.90;;;7.55;;
36213;SDS011;37652;50.400;30.628;2022-08-14T07:22:36;9.35;;;7.22;;
36213;SDS011;37652;50.400;30.628;2022-08-14T07:24:37;7.97;;;7.25;;
36213;SDS011;37652;50.400;30.628;2022-08-14T07:26:38;10.75;;;8.27;;
36213;SDS011;37652;50.400;30.628;2022-08-14T07:28:39;9.13;;;7.72;;
36213;SDS011;37652;50.400;30.628;2022-08-14T07:30:40;9.48;;;6.90;;
36213;SDS011;37652;50.400;30.628;2022-08-14T07:32:42;11.90;;;7.32;;
36213;SDS011;37652;50.400;30.628;2022-08-14T07:34:43;8.50;;;7.60;;
36213;SDS011;37652;50.400;30.628;2022-08-14T07:36:44;7.07;;;6.43;;
36213;SDS011;37652;50.400;30.628;2022-08-14T07:38:44;7.13;;;6.43;;
36213;SDS011;37652;50.400;30.628;2022-08-14T07:40:45;9.32;;;7.40;;
36213;SDS011;37652;50.400;30.628;2022-08-14T07:42:47;7.55;;;6.75;;
36213;SDS011;37652;50.400;30.628;2022-08-14T07:44:47;11.32;;;7.60;;
36213;SDS011;37652;50.400;30.628;2022-08-14T07:46:49;8.18;;;6.95;;
36213;SDS011;37652;50.400;30.628;2022-08-14T07:48:50;10.38;;;6.85;;
36213;SDS011;37652;50.400;30.628;2022-08-14T07:50:51;10.30;;;7.90;;
36213;SDS011;37652;50.400;30.628;2022-08-14T07:52:52;8.77;;;6.78;;
36213;SDS011;37652;50.400;30.628;2022-08-14T07:54:53;8.05;;;6.90;;
36213;SDS011;37652;50.400;30.628;2022-08-14T07:56:55;7.00;;;6.40;;
36213;SDS011;37652;50.400;30.628;2022-08-14T07:58:57;9.55;;;6.88;;
36213;SDS011;37652;50.400;30.628;2022-08-14T08:00:58;8.52;;;6.50;;
36213;SDS011;37652;50.400;30.628;2022-08-14T08:03:00;7.82;;;6.95;;
36213;SDS011;37652;50.400;30.628;2022-08-14T08:05:03;7.45;;;6.70;;
36213;SDS011;37652;50.400;30.628;2022-08-14T08:07:04;7.15;;;6.43;;
36213;SDS011;37652;50.400;30.628;2022-08-14T08:09:05;9.30;;;6.63;;
36213;SDS011;37652;50.400;30.628;2022-08-14T08:11:08;11.00;;;6.03;;
36213;SDS011;37652;50.400;30.628;2022-08-14T08:13:12;6.65;;;5.75;;
36213;SDS011;37652;50.400;30.628;2022-08-14T08:15:15;9.00;;;6.53;;
36213;SDS011;37652;50.400;30.628;2022-08-14T08:17:17;8.05;;;7.25;;
36213;SDS011;37652;50.400;30.628;2022-08-14T08:19:19;11.45;;;6.53;;
36213;SDS011;37652;50.400;30.628;2022-08-14T08:21:19;10.13;;;6.60;;
36213;SDS011;37652;50.400;30.628;2022-08-14T08:23:21;6.65;;;6.15;;
36213;SDS011;37652;50.400;30.628;2022-08-14T08:25:24;11.40;;;5.70;;
36213;SDS011;37652;50.400;30.628;2022-08-14T08:27:26;6.75;;;6.00;;
36213;SDS011;37652;50.400;30.628;2022-08-14T08:29:27;11.90;;;6.80;;
36213;SDS011;37652;50.400;30.628;2022-08-14T08:31:28;6.93;;;6.30;;
36213;SDS011;37652;50.400;30.628;2022-08-14T08:33:30;6.93;;;5.90;;
36213;SDS011;37652;50.400;30.628;2022-08-14T08:35:35;6.65;;;5.88;;
36213;SDS011;37652;50.400;30.628;2022-08-14T08:37:37;8.48;;;6.78;;
36213;SDS011;37652;50.400;30.628;2022-08-14T08:39:45;7.57;;;6.22;;
36213;SDS011;37652;50.400;30.628;2022-08-14T08:41:46;7.05;;;6.35;;
36213;SDS011;37652;50.400;30.628;2022-08-14T08:43:47;7.88;;;6.60;;
36213;SDS011;37652;50.400;30.628;2022-08-14T08:46:00;8.48;;;6.32;;
36213;SDS011;37652;50.400;30.628;2022-08-14T08:48:02;9.40;;;6.80;;
36213;SDS011;37652;50.400;30.628;2022-08-14T08:50:03;8.13;;;6.65;;
36213;SDS011;37652;50.400;30.628;2022-08-14T08:52:21;8.50;;;6.18;;
36213;SDS011;37652;50.400;30.628;2022-08-14T08:54:22;9.65;;;6.38;;
36213;SDS011;37652;50.400;30.628;2022-08-14T08:58:36;10.88;;;6.53;;
36213;SDS011;37652;50.400;30.628;2022-08-14T09:00:37;7.07;;;6.38;;
36213;SDS011;37652;50.400;30.628;2022-08-14T09:02:52;8.30;;;6.32;;
36213;SDS011;37652;50.400;30.628;2022-08-14T09:05:01;6.93;;;6.03;;
36213;SDS011;37652;50.400;30.628;2022-08-14T09:07:03;9.82;;;5.85;;
36213;SDS011;37652;50.400;30.628;2022-08-14T09:09:04;9.05;;;5.70;;
36213;SDS011;37652;50.400;30.628;2022-08-14T09:11:16;9.55;;;5.80;;
36213;SDS011;37652;50.400;30.628;2022-08-14T09:13:18;7.25;;;5.43;;
36213;SDS011;37652;50.400;30.628;2022-08-14T09:15:19;6.40;;;5.82;;
36213;SDS011;37652;50.400;30.628;2022-08-14T09:17:20;6.35;;;5.32;;
36213;SDS011;37652;50.400;30.628;2022-08-14T09:19:21;8.10;;;6.47;;
36213;SDS011;37652;50.400;30.628;2022-08-14T09:21:22;6.20;;;5.57;;
36213;SDS011;37652;50.400;30.628;2022-08-14T09:23:23;5.80;;;5.30;;
36213;SDS011;37652;50.400;30.628;2022-08-14T09:25:24;5.93;;;5.28;;
36213;SDS011;37652;50.400;30.628;2022-08-14T09:27:25;6.97;;;5.80;;
36213;SDS011;37652;50.400;30.628;2022-08-14T09:29:26;7.65;;;5.80;;
36213;SDS011;37652;50.400;30.628;2022-08-14T09:31:28;7.60;;;5.15;;
36213;SDS011;37652;50.400;30.628;2022-08-14T09:40:51;6.85;;;5.35;;
36213;SDS011;37652;50.400;30.628;2022-08-14T09:45:48;5.00;;;4.57;;
36213;SDS011;37652;50.400;30.628;2022-08-14T09:47:50;8.20;;;5.00;;
36213;SDS011;37652;50.400;30.628;2022-08-14T09:49:53;7.97;;;5.03;;
36213;SDS011;37652;50.400;30.628;2022-08-14T09:52:01;8.50;;;5.88;;
36213;SDS011;37652;50.400;30.628;2022-08-14T09:54:08;6.18;;;5.15;;
36213;SDS011;37652;50.400;30.628;2022-08-14T09:56:10;12.75;;;4.82;;
36213;SDS011;37652;50.400;30.628;2022-08-14T09:58:12;5.53;;;4.70;;
36213;SDS011;37652;50.400;30.628;2022-08-14T10:00:15;7.20;;;4.75;;
36213;SDS011;37652;50.400;30.628;2022-08-14T10:02:19;9.38;;;4.88;;
36213;SDS011;37652;50.400;30.628;2022-08-14T10:04:32;6.05;;;4.45;;
36213;SDS011;37652;50.400;30.628;2022-08-14T10:06:41;7.35;;;4.90;;
36213;SDS011;37652;50.400;30.628;2022-08-14T10:08:49;7.30;;;4.60;;
36213;SDS011;37652;50.400;30.628;2022-08-14T10:10:52;8.45;;;4.82;;
36213;SDS011;37652;50.400;30.628;2022-08-14T10:12:53;5.35;;;4.60;;
36213;SDS011;37652;50.400;30.628;2022-08-14T10:14:54;6.78;;;4.93;;
36213;SDS011;37652;50.400;30.628;2022-08-14T10:16:56;7.38;;;5.35;;
36213;SDS011;37652;50.400;30.628;2022-08-14T10:19:07;6.50;;;4.78;;
36213;SDS011;37652;50.400;30.628;2022-08-14T10:21:14;9.13;;;5.03;;
36213;SDS011;37652;50.400;30.628;2022-08-14T10:23:18;5.97;;;5.40;;
36213;SDS011;37652;50.400;30.628;2022-08-14T10:25:21;10.75;;;5.22;;
36213;SDS011;37652;50.400;30.628;2022-08-14T10:27:22;9.32;;;4.90;;
36213;SDS011;37652;50.400;30.628;2022-08-14T10:29:31;9.73;;;4.97;;
36213;SDS011;37652;50.400;30.628;2022-08-14T10:31:39;9.95;;;4.93;;
36213;SDS011;37652;50.400;30.628;2022-08-14T10:33:42;4.80;;;4.40;;
36213;SDS011;37652;50.400;30.628;2022-08-14T10:35:42;7.90;;;5.15;;
36213;SDS011;37652;50.400;30.628;2022-08-14T10:37:45;6.93;;;4.95;;
36213;SDS011;37652;50.400;30.628;2022-08-14T10:39:59;4.97;;;4.47;;
36213;SDS011;37652;50.400;30.628;2022-08-14T10:42:05;8.77;;;5.00;;
36213;SDS011;37652;50.400;30.628;2022-08-14T10:44:15;7.60;;;4.80;;
36213;SDS011;37652;50.400;30.628;2022-08-14T10:46:17;6.05;;;5.43;;
36213;SDS011;37652;50.400;30.628;2022-08-14T10:48:18;5.30;;;4.90;;
36213;SDS011;37652;50.400;30.628;2022-08-14T10:50:33;5.38;;;4.88;;
36213;SDS011;37652;50.400;30.628;2022-08-14T10:52:37;6.30;;;4.88;;
36213;SDS011;37652;50.400;30.628;2022-08-14T10:54:39;7.00;;;5.22;;
36213;SDS011;37652;50.400;30.628;2022-08-14T10:56:44;11.10;;;5.28;;
36213;SDS011;37652;50.400;30.628;2022-08-14T10:58:45;7.95;;;4.35;;
36213;SDS011;37652;50.400;30.628;2022-08-14T11:00:53;6.00;;;4.78;;
36213;SDS011;37652;50.400;30.628;2022-08-14T11:02:59;8.15;;;5.13;;
36213;SDS011;37652;50.400;30.628;2022-08-14T11:07:12;8.65;;;5.15;;
36213;SDS011;37652;50.400;30.628;2022-08-14T11:09:14;4.93;;;4.53;;
36213;SDS011;37652;50.400;30.628;2022-08-14T11:11:15;7.63;;;4.65;;
36213;SDS011;37652;50.400;30.628;2022-08-14T11:13:17;7.60;;;5.10;;
36213;SDS011;37652;50.400;30.628;2022-08-14T11:15:21;6.32;;;4.70;;
36213;SDS011;37652;50.400;30.628;2022-08-14T11:17:23;10.55;;;4.80;;
36213;SDS011;37652;50.400;30.628;2022-08-14T11:19:24;6.38;;;4.82;;
36213;SDS011;37652;50.400;30.628;2022-08-14T11:21:26;7.20;;;5.05;;
36213;SDS011;37652;50.400;30.628;2022-08-14T11:23:29;7.88;;;4.72;;
36213;SDS011;37652;50.400;30.628;2022-08-14T11:25:36;8.30;;;4.90;;
36213;SDS011;37652;50.400;30.628;2022-08-14T11:27:42;6.45;;;4.57;;
36213;SDS011;37652;50.400;30.628;2022-08-14T11:29:44;5.60;;;4.80;;
36213;SDS011;37652;50.400;30.628;2022-08-14T11:31:48;8.23;;;4.47;;
36213;SDS011;37652;50.400;30.628;2022-08-14T11:33:50;13.45;;;5.57;;
36213;SDS011;37652;50.400;30.628;2022-08-14T11:35:54;7.70;;;5.47;;
36213;SDS011;37652;50.400;30.628;2022-08-14T11:37:59;9.80;;;4.70;;
36213;SDS011;37652;50.400;30.628;2022-08-14T11:40:02;9.32;;;4.88;;
36213;SDS011;37652;50.400;30.628;2022-08-14T11:42:03;6.95;;;4.30;;
36213;SDS011;37652;50.400;30.628;2022-08-14T11:44:04;9.70;;;4.65;;
36213;SDS011;37652;50.400;30.628;2022-08-14T11:46:05;7.05;;;4.88;;
36213;SDS011;37652;50.400;30.628;2022-08-14T11:48:22;7.45;;;4.95;;
36213;SDS011;37652;50.400;30.628;2022-08-14T11:50:26;10.43;;;5.07;;
36213;SDS011;37652;50.400;30.628;2022-08-14T11:52:32;7.20;;;4.57;;
36213;SDS011;37652;50.400;30.628;2022-08-14T11:54:36;5.00;;;4.20;;
36213;SDS011;37652;50.400;30.628;2022-08-14T11:56:37;5.00;;;4.57;;
36213;SDS011;37652;50.400;30.628;2022-08-14T11:58:42;5.57;;;4.75;;
36213;SDS011;37652;50.400;30.628;2022-08-14T12:00:47;5.95;;;5.32;;
36213;SDS011;37652;50.400;30.628;2022-08-14T12:02:53;11.80;;;4.63;;
36213;SDS011;37652;50.400;30.628;2022-08-14T12:04:56;7.07;;;5.72;;
36213;SDS011;37652;50.400;30.628;2022-08-14T12:06:56;11.20;;;5.68;;
36213;SDS011;37652;50.400;30.628;2022-08-14T12:08:57;13.88;;;4.65;;
36213;SDS011;37652;50.400;30.628;2022-08-14T12:10:58;7.30;;;5.00;;
36213;SDS011;37652;50.400;30.628;2022-08-14T12:13:09;15.05;;;4.60;;
36213;SDS011;37652;50.400;30.628;2022-08-14T12:15:12;9.15;;;4.47;;
36213;SDS011;37652;50.400;30.628;2022-08-14T12:17:13;8.30;;;4.40;;
36213;SDS011;37652;50.400;30.628;2022-08-14T12:19:14;9.82;;;4.60;;
36213;SDS011;37652;50.400;30.628;2022-08-14T12:21:19;13.80;;;4.53;;
36213;SDS011;37652;50.400;30.628;2022-08-14T12:23:23;9.20;;;4.70;;
36213;SDS011;37652;50.400;30.628;2022-08-14T12:25:25;8.57;;;4.75;;
36213;SDS011;37652;50.400;30.628;2022-08-14T12:27:39;5.70;;;4.80;;
36213;SDS011;37652;50.400;30.628;2022-08-14T12:29:52;8.98;;;5.00;;
36213;SDS011;37652;50.400;30.628;2022-08-14T12:34:03;9.00;;;4.73;;
36213;SDS011;37652;50.400;30.628;2022-08-14T12:36:08;10.02;;;4.88;;
36213;SDS011;37652;50.400;30.628;2022-08-14T12:38:29;9.20;;;4.90;;
36213;SDS011;37652;50.400;30.628;2022-08-14T12:40:50;7.15;;;5.38;;
36213;SDS011;37652;50.400;30.628;2022-08-14T12:42:52;6.75;;;4.68;;
36213;SDS011;37652;50.400;30.628;2022-08-14T12:44:59;7.20;;;5.63;;
36213;SDS011;37652;50.400;30.628;2022-08-14T12:49:13;7.82;;;5.57;;
36213;SDS011;37652;50.400;30.628;2022-08-14T12:51:20;12.38;;;5.55;;
36213;SDS011;37652;50.400;30.628;2022-08-14T12:53:32;8.38;;;5.43;;
36213;SDS011;37652;50.400;30.628;2022-08-14T12:55:36;16.27;;;6.70;;
36213;SDS011;37652;50.400;30.628;2022-08-14T12:57:42;7.60;;;5.25;;
36213;SDS011;37652;50.400;30.628;2022-08-14T12:59:44;9.65;;;5.82;;
36213;SDS011;37652;50.400;30.628;2022-08-14T13:01:45;8.35;;;5.85;;
36213;SDS011;37652;50.400;30.628;2022-08-14T13:03:46;6.10;;;5.43;;
36213;SDS011;37652;50.400;30.628;2022-08-14T13:05:47;7.75;;;5.35;;
36213;SDS011;37652;50.400;30.628;2022-08-14T13:07:48;8.88;;;5.57;;
36213;SDS011;37652;50.400;30.628;2022-08-14T13:09:53;10.50;;;5.07;;
36213;SDS011;37652;50.400;30.628;2022-08-14T13:11:55;5.93;;;5.43;;
36213;SDS011;37652;50.400;30.628;2022-08-14T13:13:57;9.40;;;5.60;;
36213;SDS011;37652;50.400;30.628;2022-08-14T13:15:58;11.05;;;6.60;;
36213;SDS011;37652;50.400;30.628;2022-08-14T13:17:59;13.20;;;6.95;;
36213;SDS011;37652;50.400;30.628;2022-08-14T13:20:03;10.73;;;5.93;;
36213;SDS011;37652;50.400;30.628;2022-08-14T13:22:04;11.63;;;6.05;;
36213;SDS011;37652;50.400;30.628;2022-08-14T13:24:06;7.10;;;6.18;;
36213;SDS011;37652;50.400;30.628;2022-08-14T13:26:11;8.43;;;5.93;;
36213;SDS011;37652;50.400;30.628;2022-08-14T13:28:13;6.95;;;6.15;;
36213;SDS011;37652;50.400;30.628;2022-08-14T13:30:15;10.13;;;6.18;;
36213;SDS011;37652;50.400;30.628;2022-08-14T13:32:18;9.18;;;5.88;;
36213;SDS011;37652;50.400;30.628;2022-08-14T13:34:19;8.27;;;6.00;;
36213;SDS011;37652;50.400;30.628;2022-08-14T13:36:23;10.18;;;6.40;;
36213;SDS011;37652;50.400;30.628;2022-08-14T13:38:25;6.97;;;6.30;;
36213;SDS011;37652;50.400;30.628;2022-08-14T13:40:27;13.40;;;6.28;;
36213;SDS011;37652;50.400;30.628;2022-08-14T13:42:29;15.75;;;6.30;;
36213;SDS011;37652;50.400;30.628;2022-08-14T13:44:30;10.20;;;6.05;;
36213;SDS011;37652;50.400;30.628;2022-08-14T13:46:34;9.57;;;5.57;;
36213;SDS011;37652;50.400;30.628;2022-08-14T13:48:35;8.65;;;5.97;;
36213;SDS011;37652;50.400;30.628;2022-08-14T13:50:37;12.23;;;6.15;;
36213;SDS011;37652;50.400;30.628;2022-08-14T13:52:44;12.43;;;5.15;;
36213;SDS011;37652;50.400;30.628;2022-08-14T13:54:53;6.07;;;5.55;;
36213;SDS011;37652;50.400;30.628;2022-08-14T13:56:58;9.75;;;6.20;;
36213;SDS011;37652;50.400;30.628;2022-08-14T13:59:00;10.30;;;5.90;;
36213;SDS011;37652;50.400;30.628;2022-08-14T14:01:02;7.22;;;6.05;;
36213;SDS011;37652;50.400;30.628;2022-08-14T14:03:05;8.60;;;5.95;;
36213;SDS011;37652;50.400;30.628;2022-08-14T14:05:07;9.10;;;6.05;;
36213;SDS011;37652;50.400;30.628;2022-08-14T14:07:12;8.93;;;6.25;;
36213;SDS011;37652;50.400;30.628;2022-08-14T14:09:15;9.68;;;6.13;;
36213;SDS011;37652;50.400;30.628;2022-08-14T14:11:30;6.72;;;6.00;;
36213;SDS011;37652;50.400;30.628;2022-08-14T14:13:31;8.60;;;6.57;;
36213;SDS011;37652;50.400;30.628;2022-08-14T14:15:32;8.38;;;6.28;;
36213;SDS011;37652;50.400;30.628;2022-08-14T14:17:37;8.45;;;6.30;;